Time;durP1;ratioP1;P1;durP2;ratioP2;P2;SDS_P1;SDS_P2;PMS_P1;PMS_P2;Temp;Humidity;BMP_temperature;BMP_pressure;BME280_temperature;BME280_humidity;BME280_pressure;Samples;Min_cycle;Max_cycle;Signal;HPM_P1;HPM_P2
2022/03/11 00:02:49;;;;;;;26.20;14.55;;;;;;;;;;10274161;28;20061;-50
2022/03/11 00:07:47;;;;;;;14.65;9.32;;;;;;;;;;10273536;28;20505;-52
2022/03/11 00:12:45;;;;;;;15.75;10.75;;;;;;;;;;10273344;28;20087;-52
2022/03/11 00:17:43;;;;;;;12.25;7.88;;;;;;;;;;10270424;28;20465;-53
2022/03/11 00:22:43;;;;;;;23.08;13.38;;;;;;;;;;10273740;28;20069;-52
2022/03/11 00:27:41;;;;;;;10.00;7.10;;;;;;;;;;10274256;28;20045;-48
2022/03/11 00:32:40;;;;;;;14.38;8.88;;;;;;;;;;10278615;28;20041;-53
2022/03/11 00:37:40;;;;;;;14.02;8.02;;;;;;;;;;10281946;28;20075;-52
2022/03/11 00:42:39;;;;;;;10.82;7.93;;;;;;;;;;10281973;28;20399;-51
2022/03/11 00:47:37;;;;;;;11.43;7.30;;;;;;;;;;10280472;28;20087;-49
2022/03/11 00:52:36;;;;;;;12.75;7.90;;;;;;;;;;10279773;28;20069;-54
2022/03/11 00:57:34;;;;;;;12.02;8.10;;;;;;;;;;10280651;28;20078;-49
2022/03/11 01:02:35;;;;;;;13.45;9.88;;;;;;;;;;10279484;28;20482;-51
2022/03/11 01:07:34;;;;;;;10.70;7.85;;;;;;;;;;10277429;28;20559;-53
2022/03/11 01:12:32;;;;;;;11.20;7.53;;;;;;;;;;10279368;28;20520;-55
2022/03/11 01:17:30;;;;;;;11.48;8.55;;;;;;;;;;10280058;28;20079;-52
2022/03/11 01:22:32;;;;;;;9.48;6.50;;;;;;;;;;10280045;28;20473;-49
2022/03/11 01:27:30;;;;;;;9.80;7.18;;;;;;;;;;10279912;28;20048;-52
2022/03/11 01:32:28;;;;;;;8.63;7.00;;;;;;;;;;10279534;28;20077;-52
2022/03/11 01:37:26;;;;;;;20.15;9.43;;;;;;;;;;10279469;28;20257;-52
2022/03/11 01:42:26;;;;;;;21.00;11.00;;;;;;;;;;10278791;28;20045;-52
2022/03/11 01:47:24;;;;;;;12.70;8.02;;;;;;;;;;10278390;28;20080;-54
2022/03/11 01:52:23;;;;;;;18.95;11.75;;;;;;;;;;10279278;28;20084;-53
2022/03/11 01:57:21;;;;;;;12.07;7.72;;;;;;;;;;10278905;28;20076;-51
2022/03/11 02:02:21;;;;;;;13.30;7.97;;;;;;;;;;10279082;28;20077;-53
2022/03/11 02:07:21;;;;;;;13.27;10.07;;;;;;;;;;10278425;28;20072;-50
2022/03/11 02:12:38;;;;;;;17.65;9.10;;;;;;;;;;10277388;28;20045;-53
2022/03/11 02:17:37;;;;;;;12.77;9.93;;;;;;;;;;10277936;28;20099;-51
2022/03/11 02:22:37;;;;;;;11.52;8.40;;;;;;;;;;10277976;28;20049;-50
2022/03/11 02:27:37;;;;;;;9.43;6.85;;;;;;;;;;10278045;28;20072;-53
2022/03/11 02:32:35;;;;;;;10.43;7.32;;;;;;;;;;10277427;28;20048;-52
2022/03/11 02:37:34;;;;;;;10.65;8.18;;;;;;;;;;10277254;28;20080;-52
2022/03/11 02:42:32;;;;;;;11.18;8.35;;;;;;;;;;10276807;28;20076;-49
2022/03/11 02:47:32;;;;;;;13.00;8.13;;;;;;;;;;10276321;28;20053;-51
2022/03/11 02:52:30;;;;;;;10.45;6.20;;;;;;;;;;10275395;28;20087;-51
2022/03/11 02:57:28;;;;;;;9.35;6.28;;;;;;;;;;10273598;28;20072;-49
2022/03/11 03:02:26;;;;;;;13.77;8.32;;;;;;;;;;10273609;28;20156;-50
2022/03/11 03:07:27;;;;;;;13.65;8.68;;;;;;;;;;10274661;28;20545;-52
2022/03/11 03:12:25;;;;;;;9.25;6.32;;;;;;;;;;10276047;28;20099;-53
2022/03/11 03:17:24;;;;;;;11.93;7.65;;;;;;;;;;10276538;28;20099;-52
2022/03/11 03:22:22;;;;;;;18.48;12.00;;;;;;;;;;10275661;28;20073;-51
2022/03/11 03:27:22;;;;;;;64.65;34.55;;;;;;;;;;10275500;28;20053;-54
2022/03/11 03:32:20;;;;;;;71.20;30.10;;;;;;;;;;10274826;28;20079;-53
2022/03/11 03:37:18;;;;;;;13.90;7.78;;;;;;;;;;10275515;28;20077;-50
2022/03/11 03:42:16;;;;;;;11.43;7.65;;;;;;;;;;10275041;28;20072;-53
2022/03/11 03:47:16;;;;;;;16.02;8.88;;;;;;;;;;10274887;28;20052;-50
2022/03/11 03:52:14;;;;;;;14.50;9.50;;;;;;;;;;10274823;28;20509;-53
2022/03/11 03:57:12;;;;;;;29.35;14.07;;;;;;;;;;10274627;28;20073;-53
2022/03/11 04:02:11;;;;;;;117.65;52.22;;;;;;;;;;10275005;28;20077;-51
2022/03/11 04:07:11;;;;;;;33.58;16.70;;;;;;;;;;10281218;28;20095;-52
2022/03/11 04:12:10;;;;;;;23.95;10.65;;;;;;;;;;10282779;28;20044;-53
2022/03/11 04:17:08;;;;;;;40.28;22.15;;;;;;;;;;10282342;28;20091;-52
2022/03/11 04:22:07;;;;;;;33.13;25.48;;;;;;;;;;10282445;28;20071;-54
2022/03/11 04:27:06;;;;;;;22.60;18.60;;;;;;;;;;10282255;28;20082;-51
2022/03/11 04:32:05;;;;;;;13.05;9.18;;;;;;;;;;10281232;28;20045;-52
2022/03/11 04:37:04;;;;;;;54.35;36.88;;;;;;;;;;10282112;28;20084;-52
2022/03/11 04:42:02;;;;;;;18.85;12.65;;;;;;;;;;10265216;28;20077;-52
2022/03/11 04:47:04;;;;;;;17.90;11.05;;;;;;;;;;10240629;28;20084;-51
2022/03/11 04:52:04;;;;;;;16.65;10.10;;;;;;;;;;10247727;28;20084;-52
2022/03/11 04:57:02;;;;;;;18.75;12.20;;;;;;;;;;10266982;28;20076;-50
2022/03/11 05:02:04;;;;;;;32.35;16.52;;;;;;;;;;10264758;28;20084;-53
2022/03/11 05:07:02;;;;;;;30.60;18.50;;;;;;;;;;10239529;28;20076;-53
2022/03/11 05:12:00;;;;;;;16.65;11.00;;;;;;;;;;10255700;28;20068;-53
2022/03/11 05:16:59;;;;;;;16.85;10.68;;;;;;;;;;10278609;28;20510;-54
2022/03/11 05:22:00;;;;;;;14.20;9.40;;;;;;;;;;10280079;28;20049;-50
2022/03/11 05:26:58;;;;;;;23.55;12.23;;;;;;;;;;10279719;28;20076;-54
2022/03/11 05:31:56;;;;;;;35.17;17.63;;;;;;;;;;10263554;28;20080;-52
2022/03/11 05:36:55;;;;;;;25.25;10.45;;;;;;;;;;10239584;28;20077;-52
2022/03/11 05:41:54;;;;;;;27.20;13.85;;;;;;;;;;10238697;28;20533;-53
2022/03/11 05:46:53;;;;;;;19.70;12.43;;;;;;;;;;10238519;28;20045;-52
2022/03/11 05:51:52;;;;;;;17.17;12.20;;;;;;;;;;10238421;28;20395;-51
2022/03/11 05:56:54;;;;;;;23.02;10.18;;;;;;;;;;10258806;28;20067;-50
2022/03/11 06:01:54;;;;;;;15.93;10.40;;;;;;;;;;10274759;28;20073;-52
2022/03/11 06:06:53;;;;;;;17.52;9.68;;;;;;;;;;10255452;28;20541;-51
2022/03/11 06:11:53;;;;;;;27.17;16.40;;;;;;;;;;10266298;28;20072;-52
2022/03/11 06:16:55;;;;;;;35.47;20.67;;;;;;;;;;10242269;28;20064;-56
2022/03/11 06:21:55;;;;;;;19.48;11.65;;;;;;;;;;10264222;28;20072;-57
2022/03/11 06:26:53;;;;;;;17.33;12.02;;;;;;;;;;10272496;28;20095;-53
2022/03/11 06:31:51;;;;;;;14.70;9.63;;;;;;;;;;10273634;28;20076;-54
2022/03/11 06:36:51;;;;;;;13.77;8.23;;;;;;;;;;10274505;28;20069;-52
2022/03/11 06:41:49;;;;;;;8.90;6.45;;;;;;;;;;10271057;28;20060;-54
2022/03/11 06:46:49;;;;;;;17.73;11.55;;;;;;;;;;10271281;28;20088;-54
2022/03/11 06:51:48;;;;;;;16.38;10.98;;;;;;;;;;10273664;28;20068;-51
2022/03/11 06:56:47;;;;;;;30.10;19.95;;;;;;;;;;10271025;28;20079;-54
2022/03/11 07:01:45;;;;;;;12.90;9.20;;;;;;;;;;10256626;28;20060;-53
2022/03/11 07:06:44;;;;;;;12.98;9.15;;;;;;;;;;10239852;28;20075;-54
2022/03/11 07:11:42;;;;;;;14.73;8.63;;;;;;;;;;10254075;28;20061;-48
2022/03/11 07:16:42;;;;;;;17.63;11.88;;;;;;;;;;10254143;28;20065;-54
2022/03/11 07:21:40;;;;;;;19.35;12.48;;;;;;;;;;10251430;28;20068;-52
2022/03/11 07:26:38;;;;;;;13.55;9.80;;;;;;;;;;10263197;28;20073;-54
2022/03/11 07:31:37;;;;;;;48.22;24.60;;;;;;;;;;10243689;28;20571;-51
2022/03/11 07:36:38;;;;;;;21.67;13.30;;;;;;;;;;10253291;28;20084;-53
2022/03/11 07:41:36;;;;;;;39.65;21.67;;;;;;;;;;10252792;28;20064;-51
2022/03/11 07:46:35;;;;;;;16.38;10.52;;;;;;;;;;10251755;28;20049;-51
2022/03/11 07:51:35;;;;;;;12.50;9.80;;;;;;;;;;10251102;28;20132;-53
2022/03/11 07:56:34;;;;;;;24.65;14.80;;;;;;;;;;10250972;28;20100;-54
2022/03/11 08:01:33;;;;;;;18.63;12.55;;;;;;;;;;10244682;28;20076;-53
2022/03/11 08:06:32;;;;;;;13.55;9.15;;;;;;;;;;10237338;28;20084;-50
2022/03/11 08:11:30;;;;;;;25.27;18.30;;;;;;;;;;10255873;28;20076;-53
2022/03/11 08:16:30;;;;;;;13.32;8.98;;;;;;;;;;10269197;28;20092;-51
2022/03/11 08:21:28;;;;;;;15.90;9.25;;;;;;;;;;10233957;28;20049;-54
2022/03/11 08:26:28;;;;;;;21.85;14.65;;;;;;;;;;10236903;28;20095;-50
2022/03/11 08:31:28;;;;;;;15.43;9.90;;;;;;;;;;10273170;28;20087;-54
2022/03/11 08:36:27;;;;;;;9.45;7.38;;;;;;;;;;10270442;28;20072;-51
2022/03/11 08:41:27;;;;;;;16.75;11.48;;;;;;;;;;10269956;28;20096;-52
2022/03/11 08:46:26;;;;;;;20.02;10.07;;;;;;;;;;10269414;28;20096;-52
2022/03/11 08:51:24;;;;;;;28.92;17.42;;;;;;;;;;10273675;28;20072;-54
2022/03/11 08:56:24;;;;;;;13.45;7.88;;;;;;;;;;10281292;28;20554;-49
2022/03/11 09:01:23;;;;;;;14.05;8.85;;;;;;;;;;10281653;28;20080;-53
2022/03/11 09:06:22;;;;;;;12.60;8.00;;;;;;;;;;10280832;28;20076;-52
2022/03/11 09:11:21;;;;;;;10.88;7.95;;;;;;;;;;10280543;28;20056;-50
2022/03/11 09:16:21;;;;;;;14.10;7.53;;;;;;;;;;10280379;28;20080;-54
2022/03/11 09:21:20;;;;;;;24.25;15.32;;;;;;;;;;10280495;28;20041;-54
2022/03/11 09:26:18;;;;;;;9.30;8.15;;;;;;;;;;10280053;28;20489;-53
2022/03/11 09:31:38;;;;;;;16.20;11.40;;;;;;;;;;10280070;28;20072;-53
2022/03/11 09:36:38;;;;;;;8.88;6.88;;;;;;;;;;10279689;28;20095;-52
2022/03/11 09:41:37;;;;;;;27.52;18.15;;;;;;;;;;10279469;28;20064;-52
2022/03/11 09:46:35;;;;;;;17.77;12.15;;;;;;;;;;10279246;28;20049;-55
2022/03/11 09:51:35;;;;;;;9.65;8.10;;;;;;;;;;10279446;28;20041;-55
2022/03/11 09:56:35;;;;;;;17.70;12.27;;;;;;;;;;10279153;28;20461;-54
2022/03/11 10:01:33;;;;;;;17.90;9.90;;;;;;;;;;10279242;28;20083;-51
2022/03/11 10:06:39;;;;;;;29.92;18.00;;;;;;;;;;10279375;28;20057;-51
2022/03/11 10:11:37;;;;;;;25.63;15.68;;;;;;;;;;10278973;28;20049;-51
2022/03/11 10:16:36;;;;;;;17.58;10.05;;;;;;;;;;10278355;28;20072;-51
2022/03/11 10:21:37;;;;;;;15.48;8.05;;;;;;;;;;10278353;28;20120;-54
2022/03/11 10:26:39;;;;;;;63.72;32.72;;;;;;;;;;10278365;28;20065;-53
2022/03/11 10:31:40;;;;;;;25.40;17.42;;;;;;;;;;10278014;28;20083;-50
2022/03/11 10:36:45;;;;;;;39.10;21.83;;;;;;;;;;10277133;28;20466;-54
2022/03/11 10:41:46;;;;;;;21.33;14.98;;;;;;;;;;10277185;28;20077;-49
2022/03/11 10:46:44;;;;;;;27.95;18.75;;;;;;;;;;10276826;28;20426;-53
2022/03/11 10:51:43;;;;;;;16.73;10.50;;;;;;;;;;10276609;28;20053;-52
2022/03/11 10:56:43;;;;;;;32.75;20.02;;;;;;;;;;10276630;28;20084;-52
2022/03/11 11:01:44;;;;;;;20.08;11.35;;;;;;;;;;10277117;28;20056;-53
2022/03/11 11:06:43;;;;;;;18.15;12.60;;;;;;;;;;10276377;28;20494;-53
2022/03/11 11:11:42;;;;;;;12.93;9.55;;;;;;;;;;10276143;28;20407;-51
2022/03/11 11:16:42;;;;;;;13.15;10.07;;;;;;;;;;10275478;28;20088;-52
2022/03/11 11:21:42;;;;;;;24.75;17.02;;;;;;;;;;10275574;28;20072;-54
2022/03/11 11:26:41;;;;;;;13.57;8.73;;;;;;;;;;10275525;28;20068;-54
2022/03/11 11:31:41;;;;;;;10.50;9.18;;;;;;;;;;10275427;28;20447;-55
2022/03/11 11:36:40;;;;;;;14.90;12.05;;;;;;;;;;10275093;28;20084;-50
2022/03/11 11:41:39;;;;;;;13.85;9.90;;;;;;;;;;10275805;28;20045;-52
2022/03/11 11:46:38;;;;;;;20.35;12.95;;;;;;;;;;10274826;28;20071;-51
2022/03/11 11:51:55;;;;;;;18.48;11.90;;;;;;;;;;10275165;28;20486;-53
2022/03/11 11:57:00;;;;;;;19.85;11.68;;;;;;;;;;10274807;28;20542;-50
2022/03/11 12:02:04;;;;;;;13.73;9.93;;;;;;;;;;10274781;28;20045;-50
2022/03/11 12:07:03;;;;;;;26.77;16.98;;;;;;;;;;10274821;28;20049;-51
2022/03/11 12:12:03;;;;;;;37.08;19.77;;;;;;;;;;10275068;28;20081;-48
2022/03/11 12:17:03;;;;;;;41.05;20.85;;;;;;;;;;10274573;28;20049;-52
2022/03/11 12:22:21;;;;;;;22.00;15.75;;;;;;;;;;10274680;28;20060;-50
2022/03/11 12:27:34;;;;;;;27.33;15.88;;;;;;;;;;10279360;28;20056;-53
2022/03/11 12:32:34;;;;;;;29.50;17.80;;;;;;;;;;10281885;28;20052;-54
2022/03/11 12:37:32;;;;;;;26.65;15.57;;;;;;;;;;10281357;28;20084;-54
2022/03/11 12:42:36;;;;;;;23.52;14.75;;;;;;;;;;10281788;28;20079;-52
2022/03/11 12:47:37;;;;;;;27.23;18.48;;;;;;;;;;10281115;28;20053;-54
2022/03/11 12:52:37;;;;;;;25.90;15.52;;;;;;;;;;10281658;28;20478;-53
2022/03/11 12:57:38;;;;;;;27.90;17.75;;;;;;;;;;10280524;28;20087;-55
2022/03/11 13:02:38;;;;;;;18.50;13.05;;;;;;;;;;10279109;28;20095;-54
2022/03/11 13:07:36;;;;;;;17.65;12.07;;;;;;;;;;10280485;28;20080;-53
2022/03/11 13:12:38;;;;;;;18.52;12.48;;;;;;;;;;10279957;28;20076;-54
2022/03/11 13:17:47;;;;;;;22.10;13.40;;;;;;;;;;10280674;28;20513;-53
2022/03/11 13:22:49;;;;;;;19.63;13.38;;;;;;;;;;10280200;28;20052;-55
2022/03/11 13:27:49;;;;;;;18.08;12.50;;;;;;;;;;10278761;28;20472;-53
2022/03/11 13:32:48;;;;;;;24.98;15.27;;;;;;;;;;10279569;28;20040;-52
2022/03/11 13:37:47;;;;;;;19.52;11.80;;;;;;;;;;10278374;28;20083;-53
2022/03/11 13:43:05;;;;;;;22.90;16.67;;;;;;;;;;10279145;28;20399;-51
2022/03/11 13:48:06;;;;;;;31.08;19.25;;;;;;;;;;10277553;28;20044;-52
2022/03/11 13:53:05;;;;;;;20.60;14.80;;;;;;;;;;10279492;28;20045;-50
2022/03/11 13:58:16;;;;;;;21.25;14.15;;;;;;;;;;10277779;28;20163;-53
2022/03/11 14:03:19;;;;;;;21.38;15.25;;;;;;;;;;10278466;28;20040;-53
2022/03/11 14:08:24;;;;;;;23.52;15.73;;;;;;;;;;10278325;28;20412;-53
2022/03/11 14:13:25;;;;;;;58.80;30.55;;;;;;;;;;10278370;28;20084;-50
2022/03/11 14:18:26;;;;;;;102.85;36.63;;;;;;;;;;10277495;28;20083;-51
2022/03/11 14:23:32;;;;;;;42.72;17.50;;;;;;;;;;10276339;28;20041;-53
2022/03/11 14:28:30;;;;;;;119.53;43.30;;;;;;;;;;10277572;28;20041;-53
2022/03/11 14:33:31;;;;;;;98.55;38.55;;;;;;;;;;10276671;28;20083;-53
2022/03/11 14:38:29;;;;;;;39.42;18.02;;;;;;;;;;10276182;28;20084;-51
2022/03/11 14:43:28;;;;;;;40.88;24.45;;;;;;;;;;10277034;28;20494;-53
2022/03/11 14:48:31;;;;;;;24.58;19.13;;;;;;;;;;10276206;28;20087;-51
2022/03/11 14:53:30;;;;;;;91.25;45.60;;;;;;;;;;10277692;28;20045;-50
2022/03/11 14:58:28;;;;;;;22.88;15.85;;;;;;;;;;10259374;28;20507;-52
2022/03/11 15:03:26;;;;;;;23.60;13.98;;;;;;;;;;10258654;28;20068;-54
2022/03/11 15:08:26;;;;;;;29.70;20.15;;;;;;;;;;10256710;28;20091;-51
2022/03/11 15:13:25;;;;;;;27.00;17.98;;;;;;;;;;10263988;28;20049;-52
2022/03/11 15:18:23;;;;;;;24.50;17.77;;;;;;;;;;10258273;28;20137;-51
2022/03/11 15:23:22;;;;;;;20.95;14.25;;;;;;;;;;10256215;28;20080;-52
2022/03/11 15:28:22;;;;;;;26.30;20.00;;;;;;;;;;10245828;28;20072;-51
2022/03/11 15:33:20;;;;;;;21.25;14.35;;;;;;;;;;10275271;28;20482;-49
2022/03/11 15:38:19;;;;;;;22.27;14.88;;;;;;;;;;10275932;28;20045;-54
2022/03/11 15:43:17;;;;;;;19.00;15.18;;;;;;;;;;10261661;28;20071;-54
2022/03/11 15:48:16;;;;;;;27.85;17.38;;;;;;;;;;10254706;28;20073;-54
2022/03/11 15:53:15;;;;;;;106.15;59.13;;;;;;;;;;10271671;28;20045;-50
2022/03/11 15:58:13;;;;;;;34.50;22.27;;;;;;;;;;10255045;28;20069;-53
2022/03/11 16:03:11;;;;;;;23.52;15.65;;;;;;;;;;10258468;28;20073;-55
2022/03/11 16:08:11;;;;;;;25.42;17.00;;;;;;;;;;10275574;28;20048;-56
2022/03/11 16:13:10;;;;;;;47.65;29.48;;;;;;;;;;10262644;28;20087;-56
2022/03/11 16:18:08;;;;;;;25.85;16.25;;;;;;;;;;10264676;28;20103;-57
2022/03/11 16:23:12;;;;;;;53.63;29.95;;;;;;;;;;10265604;28;20175;-53
2022/03/11 16:28:11;;;;;;;25.80;17.35;;;;;;;;;;10255494;28;20099;-56
2022/03/11 16:33:30;;;;;;;29.98;19.92;;;;;;;;;;10239760;28;20053;-56
2022/03/11 16:38:30;;;;;;;49.08;33.15;;;;;;;;;;10244780;28;20178;-55
2022/03/11 16:43:28;;;;;;;60.25;39.92;;;;;;;;;;10253248;28;20485;-55
2022/03/11 16:48:26;;;;;;;78.53;44.58;;;;;;;;;;10256548;28;20077;-55
2022/03/11 16:53:29;;;;;;;44.42;31.52;;;;;;;;;;10257595;28;20080;-55
2022/03/11 16:58:28;;;;;;;119.60;81.30;;;;;;;;;;10240304;28;20072;-53
2022/03/11 17:03:26;;;;;;;82.90;53.60;;;;;;;;;;10254592;28;20076;-56
2022/03/11 17:08:25;;;;;;;53.20;33.28;;;;;;;;;;10255391;28;20126;-57
2022/03/11 17:13:24;;;;;;;45.80;31.85;;;;;;;;;;10254090;28;20076;-55
2022/03/11 17:18:23;;;;;;;54.85;32.95;;;;;;;;;;10256986;28;20116;-55
2022/03/11 17:23:23;;;;;;;37.28;22.55;;;;;;;;;;10264458;28;20072;-56
2022/03/11 17:28:21;;;;;;;35.03;20.75;;;;;;;;;;10274233;28;20128;-57
2022/03/11 17:33:21;;;;;;;44.78;24.55;;;;;;;;;;10246798;28;20061;-54
2022/03/11 17:38:23;;;;;;;45.22;24.63;;;;;;;;;;10258696;28;20166;-56
2022/03/11 17:43:22;;;;;;;46.33;30.27;;;;;;;;;;10274744;28;20068;-54
2022/03/11 17:48:22;;;;;;;35.05;20.92;;;;;;;;;;10259993;28;20080;-55
2022/03/11 17:53:20;;;;;;;30.05;17.77;;;;;;;;;;10258798;28;20075;-55
2022/03/11 17:58:19;;;;;;;38.53;23.27;;;;;;;;;;10261109;28;20066;-56
2022/03/11 18:03:17;;;;;;;51.67;30.70;;;;;;;;;;10264804;28;20084;-54
2022/03/11 18:08:18;;;;;;;32.53;19.58;;;;;;;;;;10260967;28;20064;-56
2022/03/11 18:13:17;;;;;;;36.08;21.55;;;;;;;;;;10255317;28;20064;-56
2022/03/11 18:18:17;;;;;;;21.67;14.35;;;;;;;;;;10262757;28;20061;-54
2022/03/11 18:23:16;;;;;;;33.63;19.27;;;;;;;;;;10267023;28;20482;-57
2022/03/11 18:28:15;;;;;;;35.05;17.85;;;;;;;;;;10257960;28;20068;-55
2022/03/11 18:33:13;;;;;;;32.28;18.05;;;;;;;;;;10268394;28;20332;-55
2022/03/11 18:38:12;;;;;;;30.25;14.98;;;;;;;;;;10261999;28;20068;-54
2022/03/11 18:43:11;;;;;;;20.00;12.40;;;;;;;;;;10257552;28;20572;-55
2022/03/11 18:48:10;;;;;;;26.02;14.73;;;;;;;;;;10262142;28;20049;-53
2022/03/11 18:53:08;;;;;;;36.92;23.00;;;;;;;;;;10257286;28;20076;-55
2022/03/11 18:58:07;;;;;;;22.70;15.13;;;;;;;;;;10266234;28;20297;-52
2022/03/11 19:03:06;;;;;;;21.42;14.15;;;;;;;;;;10262120;28;20075;-54
2022/03/11 19:08:08;;;;;;;17.67;10.55;;;;;;;;;;10270653;28;20077;-55
2022/03/11 19:13:07;;;;;;;18.42;11.55;;;;;;;;;;10258500;28;20099;-55
2022/03/11 19:18:06;;;;;;;20.92;13.27;;;;;;;;;;10266829;28;20072;-56
2022/03/11 19:23:05;;;;;;;30.52;16.65;;;;;;;;;;10261113;28;20483;-56
2022/03/11 19:28:03;;;;;;;25.40;15.25;;;;;;;;;;10257892;28;20073;-55
2022/03/11 19:33:02;;;;;;;35.05;19.27;;;;;;;;;;10247329;28;20060;-53
2022/03/11 19:38:04;;;;;;;25.40;14.75;;;;;;;;;;10250102;28;20073;-55
2022/03/11 19:43:04;;;;;;;39.80;19.88;;;;;;;;;;10258615;28;20514;-55
2022/03/11 19:48:07;;;;;;;30.60;15.65;;;;;;;;;;10260621;28;20091;-56
2022/03/11 19:53:07;;;;;;;49.90;24.20;;;;;;;;;;10257358;28;20471;-56
2022/03/11 19:58:05;;;;;;;39.17;22.35;;;;;;;;;;10266536;28;20068;-55
2022/03/11 20:03:04;;;;;;;26.52;17.77;;;;;;;;;;10246298;28;20061;-54
2022/03/11 20:08:05;;;;;;;24.65;13.32;;;;;;;;;;10257832;28;20490;-56
2022/03/11 20:13:05;;;;;;;29.73;20.00;;;;;;;;;;10254712;28;20072;-52
2022/03/11 20:18:03;;;;;;;24.20;15.07;;;;;;;;;;10256059;28;20073;-55
2022/03/11 20:23:02;;;;;;;17.20;11.57;;;;;;;;;;10262874;28;20064;-55
2022/03/11 20:28:00;;;;;;;15.80;8.43;;;;;;;;;;10253069;28;20104;-54
2022/03/11 20:33:00;;;;;;;15.48;11.65;;;;;;;;;;10252862;28;20073;-55
2022/03/11 20:37:59;;;;;;;14.88;10.38;;;;;;;;;;10249687;28;20084;-55
2022/03/11 20:43:02;;;;;;;20.30;13.15;;;;;;;;;;10256999;28;20136;-54
2022/03/11 20:48:03;;;;;;;21.52;15.30;;;;;;;;;;10260444;28;20095;-49
2022/03/11 20:53:01;;;;;;;28.67;21.90;;;;;;;;;;10253144;28;20092;-54
2022/03/11 20:58:01;;;;;;;50.00;29.13;;;;;;;;;;10268687;28;20064;-55
2022/03/11 21:03:00;;;;;;;35.88;23.65;;;;;;;;;;10267675;28;20077;-55
2022/03/11 21:08:00;;;;;;;48.95;30.45;;;;;;;;;;10263510;28;20072;-52
2022/03/11 21:12:58;;;;;;;58.08;33.10;;;;;;;;;;10260061;28;20487;-54
2022/03/11 21:17:57;;;;;;;39.03;23.63;;;;;;;;;;10260430;28;20072;-54
2022/03/11 21:22:56;;;;;;;92.82;49.47;;;;;;;;;;10264851;28;20079;-56
2022/03/11 21:27:56;;;;;;;61.80;36.00;;;;;;;;;;10266629;28;20443;-55
2022/03/11 21:32:54;;;;;;;39.10;26.02;;;;;;;;;;10270597;28;20084;-56
2022/03/11 21:37:53;;;;;;;43.63;26.42;;;;;;;;;;10262189;28;20079;-57
2022/03/11 21:42:52;;;;;;;41.83;26.98;;;;;;;;;;10256122;28;20083;-56
2022/03/11 21:47:52;;;;;;;46.67;32.97;;;;;;;;;;10264428;28;20525;-55
2022/03/11 21:52:51;;;;;;;40.03;27.60;;;;;;;;;;10267921;28;20076;-55
2022/03/11 21:57:50;;;;;;;55.47;34.08;;;;;;;;;;10260443;28;20446;-56
2022/03/11 22:02:48;;;;;;;47.22;29.88;;;;;;;;;;10238716;28;20081;-55
2022/03/11 22:07:48;;;;;;;51.63;31.60;;;;;;;;;;10247844;28;20072;-56
2022/03/11 22:12:46;;;;;;;78.82;46.63;;;;;;;;;;10264467;28;20065;-56
2022/03/11 22:17:45;;;;;;;92.47;48.55;;;;;;;;;;10265037;28;20075;-56
2022/03/11 22:22:44;;;;;;;93.85;53.75;;;;;;;;;;10258277;28;20464;-56
2022/03/11 22:27:43;;;;;;;86.88;47.03;;;;;;;;;;10261381;28;20069;-57
2022/03/11 22:32:42;;;;;;;80.85;45.65;;;;;;;;;;10256699;28;20068;-57
2022/03/11 22:37:40;;;;;;;47.28;29.00;;;;;;;;;;10259384;28;20076;-56
2022/03/11 22:42:38;;;;;;;29.80;20.65;;;;;;;;;;10270860;28;20088;-56
2022/03/11 22:47:38;;;;;;;24.38;15.52;;;;;;;;;;10276690;28;20049;-57
2022/03/11 22:52:39;;;;;;;21.60;14.10;;;;;;;;;;10277150;28;20045;-56
2022/03/11 22:57:40;;;;;;;17.88;10.82;;;;;;;;;;10277485;28;20072;-56
2022/03/11 23:13:11;;;;;;;;;;;;;;;;;;10276257;28;20506;-56
2022/03/11 23:18:11;;;;;;;16.08;8.65;;;;;;;;;;10276239;28;19971;-55
2022/03/11 23:23:09;;;;;;;12.57;9.95;;;;;;;;;;10269342;28;20069;-55
2022/03/11 23:28:07;;;;;;;13.65;9.02;;;;;;;;;;10254521;28;20085;-55
2022/03/11 23:33:13;;;;;;;16.27;8.90;;;;;;;;;;10235605;28;20049;-54
2022/03/11 23:38:13;;;;;;;12.45;8.45;;;;;;;;;;10235300;28;20068;-53
2022/03/11 23:43:11;;;;;;;10.73;7.80;;;;;;;;;;10258178;28;20103;-55
2022/03/11 23:48:13;;;;;;;13.75;8.45;;;;;;;;;;10274931;28;20064;-54
2022/03/11 23:53:13;;;;;;;12.27;9.18;;;;;;;;;;10275054;28;20033;-54
2022/03/11 23:58:11;;;;;;;11.73;8.73;;;;;;;;;;10275195;28;20045;-55
